Turvania, Brazil
Current Conditions -  °F | °C
As of 5:00 PM on Tuesday 21 Oct 2014 (Local Time) from SBGO Reporting Station
Scattered Clouds Scattered Clouds  
Wind Chill: 34°   Ceiling: Unl
Heat Index: 34°   Visibility: 6mi
Dew Point: 10°   Wind: 9mph
Humidity: 23%   Direction: 160°SSE
Pressure: 29.88"   Gusts: NA
Location:  16.61°S, 50.13°W
Report Text: SBGO 211900Z 16008KT 9999 SCT040 SCT100 34/10 Q1012
Loading
Personal Weather Stations






























Interactive Weather Map
Tropical Storm Tracking
New forecast layout! Learn more

10-Day Weather Forecast

Advertisements
Track Severe Weather on mobile